Time;durP1;ratioP1;P1;durP2;ratioP2;P2;SDS_P1;SDS_P2;PMS_P1;PMS_P2;Temp;Humidity;BMP_temperature;BMP_pressure;BME280_temperature;BME280_humidity;BME280_pressure;Samples;Min_cycle;Max_cycle;Signal;HPM_P1;HPM_P2
2022/05/21 00:00:20;;;;;;;;;;;;;;;;;;5010798;28;20565;-65
2022/05/21 00:02:47;;;;;;;;;;;;;;;;;;5005447;28;20001;-65
2022/05/21 00:05:14;;;;;;;;;;;;;;;;;;4990357;28;19929;-64
2022/05/21 00:07:41;;;;;;;;;;;;;;;;;;5008918;28;19926;-65
2022/05/21 00:10:08;;;;;;;;;;;;;;;;;;4992583;28;21420;-65
2022/05/21 00:12:36;;;;;;;;;;;;;;;;;;5008557;28;20044;-66
2022/05/21 00:15:03;;;;;;;;;;;;;;;;;;5005811;28;19960;-65
2022/05/21 00:17:31;;;;;;;;;;;;;;;;;;5004887;28;19925;-65
2022/05/21 00:19:58;;;;;;;;;;;;;;;;;;5006875;28;19957;-66
2022/05/21 00:22:28;;;;;;;;;;;;;;;;;;5006390;28;20567;-66
2022/05/21 00:24:55;;;;;;;;;;;;;;;;;;5005694;28;19952;-66
2022/05/21 00:27:22;;;;;;;;;;;;;;;;;;5008101;28;19934;-66
2022/05/21 00:29:49;;;;;;;;;;;;;;;;;;5007523;28;19935;-66
2022/05/21 00:32:16;;;;;;;;;;;;;;;;;;5009787;28;19933;-63
2022/05/21 00:34:44;;;;;;;;;;;;;;;;;;5012540;28;19930;-63
2022/05/21 00:37:11;;;;;;;;;;;;;;;;;;5006198;28;20285;-63
2022/05/21 00:39:38;;;;;;;;;;;;;;;;;;4997912;28;20391;-65
2022/05/21 00:42:06;;;;;;;;;;;;;;;;;;4993983;28;19940;-64
2022/05/21 00:44:33;;;;;;;;;;;;;;;;;;5032927;28;19929;-65
2022/05/21 00:47:00;;;;;;;;;;;;;;;;;;5010316;28;20017;-65
2022/05/21 00:49:27;;;;;;;;;;;;;;;;;;5009409;28;19932;-65
2022/05/21 00:51:54;;;;;;;;;;;;;;;;;;5006278;28;19926;-66
2022/05/21 00:54:21;;;;;;;;;;;;;;;;;;5011261;28;19926;-65
2022/05/21 00:56:50;;;;;;;;;;;12.50;99.90;;;;;;5008405;28;19929;-65
2022/05/21 01:02:05;;;;;;;;;;;12.30;99.90;;;;;;5008523;28;19980;-65
2022/05/21 01:04:33;;;;;;;;;;;12.20;99.90;;;;;;5008350;28;20455;-64
2022/05/21 01:07:00;;;;;;;;;;;12.00;99.90;;;;;;5010518;28;19926;-65
2022/05/21 01:09:27;;;;;;;;;;;11.90;99.90;;;;;;5009593;28;19926;-65
2022/05/21 01:11:55;;;;;;;;;;;11.80;99.90;;;;;;5012465;28;19925;-65
2022/05/21 01:14:22;;;;;;;;;;;11.60;99.90;;;;;;5009944;28;19926;-65
2022/05/21 01:16:49;;;;;;;;;;;11.50;99.90;;;;;;5007737;28;20048;-64
2022/05/21 01:19:17;;;;;;;;;;;11.40;99.90;;;;;;5008669;28;19936;-65
2022/05/21 01:21:43;;;;;;;;;;;11.30;99.90;;;;;;5006780;28;20603;-65
2022/05/21 01:24:11;;;;;;;;;;;11.30;99.90;;;;;;5012915;28;19925;-65
2022/05/21 01:26:38;;;;;;;;;;;11.30;99.90;;;;;;5010557;28;20016;-64
2022/05/21 01:29:12;;;;;;;;;;;11.30;99.90;;;;;;5010063;28;20027;-64
2022/05/21 01:31:39;;;;;;;;;;;11.30;99.90;;;;;;5012465;28;19926;-65
2022/05/21 01:34:05;;;;;;;;;;;11.30;99.90;;;;;;5004607;28;20270;-64
2022/05/21 01:36:32;;;;;;;;;;;11.30;99.90;;;;;;5009897;28;20514;-64
2022/05/21 01:38:59;;;;;;;;;;;11.30;99.90;;;;;;5011723;28;19925;-64
2022/05/21 01:41:25;;;;;;;;;;;11.20;99.90;;;;;;5011474;28;19937;-64
2022/05/21 01:46:40;;;;;;;;;;;11.10;99.90;;;;;;5007748;28;19930;-65
2022/05/21 01:49:09;;;;;;;;;;;11.00;99.90;;;;;;5009781;28;20013;-65
2022/05/21 01:51:36;;;;;;;;;;;10.90;99.90;;;;;;5011874;28;20487;-65
2022/05/21 01:54:03;;;;;;;;;;;10.90;99.90;;;;;;5009455;28;19929;-65
2022/05/21 01:56:30;;;;;;;;;;;10.90;99.90;;;;;;5010938;28;19925;-65
2022/05/21 01:58:56;;;;;;;;;;;10.80;99.90;;;;;;5003961;28;20017;-65
2022/05/21 02:01:24;;;;;;;;;;;10.80;99.90;;;;;;5008530;28;19976;-65
2022/05/21 02:03:53;;;;;;;;;;;10.70;99.90;;;;;;5008995;28;19937;-65
2022/05/21 02:06:23;;;;;;;;;;;10.70;99.90;;;;;;5009762;28;20016;-65
2022/05/21 02:08:50;;;;;;;;;;;10.60;99.90;;;;;;5008235;28;20020;-65
2022/05/21 02:11:16;;;;;;;;;;;10.50;99.90;;;;;;5006183;28;19925;-65
2022/05/21 02:13:46;;;;;;;;;;;10.40;99.90;;;;;;5003932;28;20005;-65
2022/05/21 02:16:15;;;;;;;;;;;10.20;99.90;;;;;;5005463;28;20037;-65
2022/05/21 02:18:42;;;;;;;;;;;10.00;99.90;;;;;;5003809;28;19979;-65
2022/05/21 02:21:08;;;;;;;;;;;9.90;99.90;;;;;;5011468;28;20555;-65
2022/05/21 02:23:35;;;;;;;;;;;9.70;99.90;;;;;;5010942;28;19925;-65
2022/05/21 02:26:02;;;;;;;;;;;9.70;99.90;;;;;;5010393;28;20015;-65
2022/05/21 02:28:31;;;;;;;;;;;9.60;99.90;;;;;;5011169;28;19925;-65
2022/05/21 02:30:58;;;;;;;;;;;9.60;99.90;;;;;;5009069;28;20023;-65
2022/05/21 02:33:30;;;;;;;;;;;9.50;99.90;;;;;;5009035;28;19980;-65
2022/05/21 02:35:59;;;;;;;;;;;9.40;99.90;;;;;;5003963;28;19926;-65
2022/05/21 02:41:12;;;;;;;;;;;9.20;99.90;;;;;;5008217;28;19925;-65
2022/05/21 02:43:39;;;;;;;;;;;9.10;99.90;;;;;;5009755;28;19948;-65
2022/05/21 02:46:06;;;;;;;;;;;8.90;99.90;;;;;;5007659;28;19929;-65
2022/05/21 02:48:32;;;;;;;;;;;8.80;99.90;;;;;;5002982;28;19926;-65
2022/05/21 02:51:00;;;;;;;;;;;8.80;99.90;;;;;;5009374;28;20011;-65
2022/05/21 02:53:26;;;;;;;;;;;8.70;99.90;;;;;;5007119;28;19932;-65
2022/05/21 02:55:55;;;;;;;;;;;8.70;99.90;;;;;;5009173;28;20020;-65
2022/05/21 02:58:22;;;;;;;;;;;8.70;99.90;;;;;;5007312;28;19926;-65
2022/05/21 03:00:49;;;;;;;;;;;8.60;99.90;;;;;;5010622;28;20408;-65
2022/05/21 03:03:15;;;;;;;;;;;8.60;99.90;;;;;;5008032;28;19941;-65
2022/05/21 03:05:42;;;;;;;;;;;8.50;99.90;;;;;;5002013;28;19960;-65
2022/05/21 03:10:56;;;;;;;;;;;8.50;99.90;;;;;;5008769;28;19925;-65
2022/05/21 03:13:22;;;;;;;;;;;8.50;99.90;;;;;;5006921;28;19932;-65
2022/05/21 03:15:49;;;;;;;;;;;8.50;99.90;;;;;;5010768;28;20420;-65
2022/05/21 03:18:16;;;;;;;;;;;8.50;99.90;;;;;;5007010;28;19932;-65
2022/05/21 03:20:43;;;;;;;;;;;8.60;99.90;;;;;;5007662;28;20025;-65
2022/05/21 03:23:10;;;;;;;;;;;8.60;99.90;;;;;;5000656;28;19934;-65
2022/05/21 03:25:37;;;;;;;;;;;8.70;99.90;;;;;;4998278;28;19926;-65
2022/05/21 03:28:05;;;;;;;;;;;8.70;99.90;;;;;;4996027;28;20020;-65
2022/05/21 03:30:32;;;;;;;;;;;8.70;99.90;;;;;;5005382;28;19987;-65
2022/05/21 03:32:59;;;;;;;;;;;8.70;99.90;;;;;;5009423;28;19932;-65
2022/05/21 03:35:26;;;;;;;;;;;8.80;99.90;;;;;;5009974;28;20369;-65
2022/05/21 03:37:56;;;;;;;;;;;8.80;99.90;;;;;;5006281;28;20392;-65
2022/05/21 03:40:24;;;;;;;;;;;8.80;99.90;;;;;;5000222;28;19926;-65
2022/05/21 03:42:51;;;;;;;;;;;8.80;99.90;;;;;;5001676;28;19925;-65
2022/05/21 03:45:18;;;;;;;;;;;8.90;99.90;;;;;;5007335;28;19930;-65
2022/05/21 03:47:45;;;;;;;;;;;9.00;99.90;;;;;;5004287;28;19926;-65
2022/05/21 03:50:16;;;;;;;;;;;9.00;99.90;;;;;;5004100;28;19948;-65
2022/05/21 03:52:42;;;;;;;;;;;9.10;99.90;;;;;;5001281;28;19948;-65
2022/05/21 03:55:09;;;;;;;;;;;9.20;99.90;;;;;;5006105;28;19926;-65
2022/05/21 03:57:39;;;;;;;;;;;9.30;99.90;;;;;;5010574;28;20443;-65
2022/05/21 04:00:07;;;;;;;;;;;9.30;99.90;;;;;;5010604;28;19931;-65
2022/05/21 04:02:34;;;;;;;;;;;9.30;99.90;;;;;;4999768;28;20658;-65
2022/05/21 04:05:03;;;;;;;;;;;9.40;99.90;;;;;;4997549;28;19971;-65
2022/05/21 04:07:30;;;;;;;;;;;9.40;99.90;;;;;;5000675;28;20025;-65
2022/05/21 04:09:56;;;;;;;;;;;9.40;99.90;;;;;;5004397;28;19933;-65
2022/05/21 04:12:23;;;;;;;;;;;9.40;99.90;;;;;;5004720;28;19925;-65
2022/05/21 04:14:49;;;;;;;;;;;9.40;99.90;;;;;;5008148;28;19925;-65
2022/05/21 04:17:16;;;;;;;;;;;9.40;99.90;;;;;;5008623;28;19936;-65
2022/05/21 04:19:46;;;;;;;;;;;9.50;99.90;;;;;;5010185;28;19961;-65
2022/05/21 04:22:13;;;;;;;;;;;9.50;99.90;;;;;;5009334;28;19957;-65
2022/05/21 04:24:39;;;;;;;;;;;9.60;99.90;;;;;;5007609;28;20004;-65
2022/05/21 04:27:08;;;;;;;;;;;9.70;99.90;;;;;;5009568;28;19993;-65
2022/05/21 04:29:35;;;;;;;;;;;9.80;99.90;;;;;;5008196;28;19929;-65
2022/05/21 04:32:02;;;;;;;;;;;9.90;99.90;;;;;;5008965;28;19925;-66
2022/05/21 04:34:29;;;;;;;;;;;10.00;99.90;;;;;;5001096;28;19957;-65
2022/05/21 04:36:56;;;;;;;;;;;10.20;99.90;;;;;;5006700;28;19961;-66
2022/05/21 04:39:27;;;;;;;;;;;11.00;99.90;;;;;;5009919;28;19937;-66
2022/05/21 04:41:54;;;;;;;;;;;12.40;99.90;;;;;;5011818;28;20012;-65
2022/05/21 04:44:23;;;;;;;;;;;13.70;99.90;;;;;;5001452;28;19925;-65
2022/05/21 04:46:50;;;;;;;;;;;14.70;99.90;;;;;;5009919;28;20025;-64
2022/05/21 04:49:17;;;;;;;;;;;15.90;99.90;;;;;;5008668;28;19993;-64
2022/05/21 04:51:43;;;;;;;;;;;16.90;99.90;;;;;;5006540;28;20481;-64
2022/05/21 04:54:13;;;;;;;;;;;17.50;99.90;;;;;;5009408;28;19925;-64
2022/05/21 04:56:39;;;;;;;;;;;17.70;99.90;;;;;;5013768;28;20375;-63
2022/05/21 04:59:07;;;;;;;;;;;17.90;99.90;;;;;;5012433;28;19926;-64
2022/05/21 05:01:35;;;;;;;;;;;18.00;99.90;;;;;;5011558;28;20076;-64
2022/05/21 05:04:01;;;;;;;;;;;18.10;99.90;;;;;;5006388;28;20281;-64
2022/05/21 05:06:28;;;;;;;;;;;18.30;99.90;;;;;;5010067;28;20012;-64
2022/05/21 05:08:55;;;;;;;;;;;18.80;99.90;;;;;;5021864;28;19935;-63
2022/05/21 05:11:21;;;;;;;;;;;18.80;99.90;;;;;;5018579;28;20241;-63
2022/05/21 05:13:48;;;;;;;;;;;18.80;99.90;;;;;;5017220;28;20012;-64
2022/05/21 05:16:15;;;;;;;;;;;19.20;99.90;;;;;;5006294;28;19936;-64
2022/05/21 05:18:41;;;;;;;;;;;19.70;99.90;;;;;;5009076;28;20013;-64
2022/05/21 05:21:11;;;;;;;;;;;20.10;99.90;;;;;;5010325;28;19936;-64
2022/05/21 05:23:38;;;;;;;;;;;20.40;99.90;;;;;;5009619;28;19932;-63
2022/05/21 05:26:04;;;;;;;;;;;20.80;99.90;;;;;;5002096;28;19965;-63
2022/05/21 05:28:31;;;;;;;;;;;20.90;99.90;;;;;;5010696;28;19995;-64
2022/05/21 05:30:58;;;;;;;;;;;21.00;99.90;;;;;;5007974;28;20443;-64
2022/05/21 05:33:26;;;;;;;;;;;20.80;99.90;;;;;;5003543;28;19992;-63
2022/05/21 05:35:54;;;;;;;;;;;20.90;99.90;;;;;;5009913;28;20387;-63
2022/05/21 05:38:22;;;;;;;;;;;21.30;99.90;;;;;;5015660;28;19926;-64
2022/05/21 05:40:50;;;;;;;;;;;21.80;99.90;;;;;;5007821;28;19983;-64
2022/05/21 05:43:19;;;;;;;;;;;22.20;99.90;;;;;;5018302;28;19939;-65
2022/05/21 05:45:47;;;;;;;;;;;;;;;;;;5013915;28;19926;-64
2022/05/21 05:48:16;;;;;;;;;;;;;;;;;;5016810;28;19983;-64
2022/05/21 05:50:44;;;;;;;;;;;;;;;;;;5005216;28;20359;-65
2022/05/21 05:53:11;;;;;;;;;;;;;;;;;;5003714;28;20005;-65
2022/05/21 05:55:41;;;;;;;;;;;24.40;99.90;;;;;;5002992;28;19956;-65
2022/05/21 06:01:01;;;;;;;;;;;24.80;99.90;;;;;;4988603;28;19926;-65
2022/05/21 06:03:28;;;;;;;;;;;24.40;99.90;;;;;;5002360;28;20418;-65
2022/05/21 06:05:55;;;;;;;;;;;24.80;99.90;;;;;;4996451;28;20260;-65
2022/05/21 06:08:21;;;;;;;;;;;25.00;99.90;;;;;;5008692;28;19931;-65
2022/05/21 06:10:49;;;;;;;;;;;24.30;99.90;;;;;;5008784;28;20495;-64
2022/05/21 06:13:16;;;;;;;;;;;23.10;99.90;;;;;;5006071;28;19929;-65
2022/05/21 06:15:43;;;;;;;;;;;21.30;99.90;;;;;;5003608;28;20017;-64
2022/05/21 06:18:14;;;;;;;;;;;20.20;99.90;;;;;;5009381;28;20021;-64
2022/05/21 06:20:41;;;;;;;;;;;19.40;99.90;;;;;;5010127;28;19926;-63
2022/05/21 06:23:08;;;;;;;;;;;18.90;99.90;;;;;;5006817;28;19930;-64
2022/05/21 06:25:35;;;;;;;;;;;18.30;99.90;;;;;;5007458;28;19932;-64
2022/05/21 06:28:05;;;;;;;;;;;17.80;99.90;;;;;;5016141;28;20012;-64
2022/05/21 06:30:33;;;;;;;;;;;17.70;99.90;;;;;;5003706;28;19926;-64
2022/05/21 06:33:10;;;;;;;;;;;18.20;99.90;;;;;;5005228;28;19932;-64
2022/05/21 06:35:38;;;;;;;;;;;18.50;99.90;;;;;;5006474;28;20021;-64
2022/05/21 06:38:05;;;;;;;;;;;18.40;99.90;;;;;;4990282;28;19933;-65
2022/05/21 06:40:32;;;;;;;;;;;18.70;99.90;;;;;;5000488;28;19932;-64
2022/05/21 06:43:00;;;;;;;;;;;20.10;99.90;;;;;;4999277;28;19933;-65
2022/05/21 06:45:28;;;;;;;;;;;21.20;99.90;;;;;;5008113;28;20453;-64
2022/05/21 06:47:59;;;;;;;;;;;21.60;99.90;;;;;;4997197;28;19926;-63
2022/05/21 06:50:25;;;;;;;;;;;21.30;99.90;;;;;;4992300;28;21870;-64
2022/05/21 06:52:52;;;;;;;;;;;21.70;99.90;;;;;;5000335;28;20681;-60
2022/05/21 06:55:20;;;;;;;;;;;21.30;99.90;;;;;;5004743;28;19933;-69
2022/05/21 06:57:46;;;;;;;;;;;21.70;99.90;;;;;;5003970;28;20150;-64
2022/05/21 07:00:13;;;;;;;;;;;22.60;99.90;;;;;;5008993;28;19929;-66
2022/05/21 07:02:40;;;;;;;;;;;23.30;99.90;;;;;;5004898;28;19925;-68
2022/05/21 07:07:55;;;;;;;;;;;23.70;99.90;;;;;;5002810;28;20308;-66
2022/05/21 07:10:23;;;;;;;;;;;24.10;99.90;;;;;;5002403;28;20646;-66
2022/05/21 07:12:50;;;;;;;;;;;24.60;99.90;;;;;;4987769;28;19976;-65
2022/05/21 07:15:17;;;;;;;;;;;25.00;99.90;;;;;;4993610;28;19926;-68
2022/05/21 07:17:45;;;;;;;;;;;24.20;99.90;;;;;;4996961;28;19936;-65
2022/05/21 07:20:15;;;;;;;;;;;23.30;99.90;;;;;;5000315;28;19934;-65
2022/05/21 07:22:42;;;;;;;;;;;22.80;99.90;;;;;;4998127;28;19983;-66
2022/05/21 07:25:09;;;;;;;;;;;22.80;99.90;;;;;;5004953;28;19929;-67
2022/05/21 07:27:35;;;;;;;;;;;21.70;99.90;;;;;;5002353;28;19940;-66
2022/05/21 07:30:02;;;;;;;;;;;21.20;99.90;;;;;;5003880;28;19925;-67
2022/05/21 07:32:29;;;;;;;;;;;21.50;99.90;;;;;;5002572;28;19952;-66
2022/05/21 07:35:15;;;;;;;;;;;21.90;99.90;;;;;;5001844;28;20463;-66
2022/05/21 07:37:46;;;;;;;;;;;22.90;99.90;;;;;;5001986;28;20724;-69
2022/05/21 07:40:14;;;;;;;;;;;24.10;99.90;;;;;;4999208;28;19976;-68
2022/05/21 07:42:41;;;;;;;;;;;24.90;99.90;;;;;;4999725;28;19940;-68
2022/05/21 07:45:14;;;;;;;;;;;24.80;99.90;;;;;;5005138;28;19925;-68
2022/05/21 07:47:40;;;;;;;;;;;24.40;99.90;;;;;;5001976;28;19936;-68
2022/05/21 07:50:07;;;;;;;;;;;24.30;99.90;;;;;;5001791;28;19926;-68
2022/05/21 07:52:34;;;;;;;;;;;24.10;99.90;;;;;;4997624;28;20008;-67
2022/05/21 07:55:02;;;;;;;;;;;23.30;99.90;;;;;;5004081;28;19954;-67
2022/05/21 07:57:28;;;;;;;;;;;23.50;99.90;;;;;;5000994;28;19948;-65
2022/05/21 07:59:55;;;;;;;;;;;24.10;99.90;;;;;;5003579;28;20483;-65
2022/05/21 08:02:22;;;;;;;;;;;24.30;99.90;;;;;;4993157;28;19933;-69
2022/05/21 08:04:49;;;;;;;;;;;24.30;99.90;;;;;;5006225;28;19935;-67
2022/05/21 08:07:16;;;;;;;;;;;25.40;99.90;;;;;;5002408;28;19930;-68
2022/05/21 08:09:43;;;;;;;;;;;26.30;99.90;;;;;;5003790;28;19930;-66
2022/05/21 08:12:14;;;;;;;;;;;26.70;99.90;;;;;;5004430;28;20333;-66
2022/05/21 08:14:44;;;;;;;;;;;26.10;99.90;;;;;;5007192;28;20008;-67
2022/05/21 08:17:11;;;;;;;;;;;25.60;99.90;;;;;;5010559;28;20004;-68
2022/05/21 08:19:38;;;;;;;;;;;26.00;99.90;;;;;;5007139;28;19972;-67
2022/05/21 08:27:35;;;;;;;;;;;25.40;99.90;;;;;;5001748;28;19965;-66
2022/05/21 08:30:04;;;;;;;;;;;24.10;99.90;;;;;;5004631;28;19934;-67
2022/05/21 08:32:30;;;;;;;;;;;23.80;99.90;;;;;;5010498;28;21207;-67
2022/05/21 08:34:59;;;;;;;;;;;23.60;99.90;;;;;;5006640;28;20372;-66
2022/05/21 08:37:27;;;;;;;;;;;23.70;99.90;;;;;;5011782;28;19925;-67
2022/05/21 08:39:54;;;;;;;;;;;23.20;99.90;;;;;;5010062;28;19926;-66
2022/05/21 08:42:25;;;;;;;;;;;23.40;99.90;;;;;;5012953;28;19925;-69
2022/05/21 08:44:54;;;;;;;;;;;23.40;99.90;;;;;;4999942;28;20214;-67
2022/05/21 08:47:22;;;;;;;;;;;23.70;99.90;;;;;;5005044;28;19930;-66
2022/05/21 08:49:54;;;;;;;;;;;24.10;99.90;;;;;;5013232;28;20036;-66
2022/05/21 08:52:23;;;;;;;;;;;24.10;99.90;;;;;;5010757;28;19935;-65
2022/05/21 08:54:52;;;;;;;;;;;23.50;99.90;;;;;;5005691;28;20312;-66
2022/05/21 08:57:57;;;;;;;;;;;22.40;99.90;;;;;;5007684;28;19931;-68
2022/05/21 09:00:33;;;;;;;;;;;22.10;99.90;;;;;;4985085;28;19932;-67
2022/05/21 09:03:00;;;;;;;;;;;23.00;99.90;;;;;;4985530;28;19976;-68
2022/05/21 09:05:27;;;;;;;;;;;23.30;99.90;;;;;;4980530;28;19934;-67
2022/05/21 09:08:02;;;;;;;;;;;23.00;99.90;;;;;;4986309;28;20016;-65
2022/05/21 09:10:38;;;;;;;;;;;22.20;99.90;;;;;;4984865;28;19926;-67
2022/05/21 09:13:09;;;;;;;;;;;21.80;99.90;;;;;;4983226;28;19972;-66
2022/05/21 09:18:22;;;;;;;;;;;20.60;99.90;;;;;;4976805;28;19940;-67
2022/05/21 09:20:55;;;;;;;;;;;20.60;99.90;;;;;;4979387;28;19937;-66
2022/05/21 09:23:22;;;;;;;;;;;21.30;99.90;;;;;;4987307;28;19973;-67
2022/05/21 09:26:07;;;;;;;;;;;21.50;99.90;;;;;;4984364;28;20013;-67
2022/05/21 09:28:38;;;;;;;;;;;21.80;99.90;;;;;;4980927;28;20417;-67
2022/05/21 09:31:06;;;;;;;;;;;22.70;99.90;;;;;;4989730;28;20035;-65
2022/05/21 09:33:42;;;;;;;;;;;23.30;99.90;;;;;;5004738;28;19929;-67
2022/05/21 09:36:14;;;;;;;;;;;23.40;99.90;;;;;;5003717;28;20384;-66
2022/05/21 09:38:52;;;;;;;;;;;23.20;99.90;;;;;;5004101;28;20016;-67
2022/05/21 09:41:20;;;;;;;;;;;23.40;99.90;;;;;;5008368;28;19926;-65
2022/05/21 09:46:41;;;;;;;;;;;24.30;99.90;;;;;;5004580;28;19931;-65
2022/05/21 09:49:12;;;;;;;;;;;24.80;99.90;;;;;;5022849;28;19929;-65
2022/05/21 09:51:40;;;;;;;;;;;25.20;99.90;;;;;;5001125;28;19939;-68
2022/05/21 09:54:19;;;;;;;;;;;25.10;99.80;;;;;;5009252;28;19936;-64
2022/05/21 09:56:48;;;;;;;;;;;24.00;99.90;;;;;;5007750;28;19941;-65
2022/05/21 09:59:20;;;;;;;;;;;23.50;99.90;;;;;;4996760;28;19957;-66
2022/05/21 10:01:48;;;;;;;;;;;24.10;99.90;;;;;;5003951;28;19932;-65
2022/05/21 10:04:19;;;;;;;;;;;25.20;99.90;;;;;;5010839;28;20499;-66
2022/05/21 10:06:52;;;;;;;;;;;25.50;99.70;;;;;;5002559;28;19936;-65
2022/05/21 10:12:14;;;;;;;;;;;25.80;99.70;;;;;;4996947;28;19936;-68
2022/05/21 10:14:46;;;;;;;;;;;26.20;99.50;;;;;;5006776;28;19925;-65
2022/05/21 10:17:32;;;;;;;;;;;26.10;99.70;;;;;;5008672;28;19926;-66
2022/05/21 10:20:09;;;;;;;;;;;25.70;98.60;;;;;;5002539;28;19929;-66
2022/05/21 10:22:43;;;;;;;;;;;25.60;99.30;;;;;;5004424;28;19935;-69
2022/05/21 10:25:13;;;;;;;;;;;25.80;98.30;;;;;;5003534;28;19926;-63
2022/05/21 10:27:57;;;;;;;;;;;25.80;98.40;;;;;;4998440;28;20005;-64
2022/05/21 10:30:27;;;;;;;;;;;25.60;98.50;;;;;;5024994;28;19981;-67
2022/05/21 10:32:56;;;;;;;;;;;25.50;98.80;;;;;;5010508;28;19939;-66
2022/05/21 10:35:41;;;;;;;;;;;25.10;98.00;;;;;;5004898;28;19956;-66
2022/05/21 10:38:14;;;;;;;;;;;24.60;99.20;;;;;;5017800;28;19929;-66
2022/05/21 10:40:52;;;;;;;;;;;24.60;99.50;;;;;;5010342;28;20348;-73
2022/05/21 10:43:45;;;;;;;;;;;24.60;98.40;;;;;;5012004;28;20020;-65
2022/05/21 10:46:19;;;;;;;;;;;24.30;98.20;;;;;;5001171;28;19930;-65
2022/05/21 10:48:57;;;;;;;;;;;24.50;98.80;;;;;;5014867;28;19931;-65
2022/05/21 10:51:33;;;;;;;;;;;24.30;98.90;;;;;;5008754;28;19925;-68
2022/05/21 10:54:00;;;;;;;;;;;24.20;98.00;;;;;;5007630;28;19932;-67
2022/05/21 10:56:42;;;;;;;;;;;24.60;98.40;;;;;;5007277;28;19926;-67
2022/05/21 10:59:29;;;;;;;;;;;24.80;98.70;;;;;;4993402;28;20391;-65
2022/05/21 11:02:24;;;;;;;;;;;25.40;98.50;;;;;;5006507;28;19965;-67
2022/05/21 11:05:02;;;;;;;;;;;25.50;98.90;;;;;;5007169;28;19929;-69
2022/05/21 11:07:38;;;;;;;;;;;25.80;97.80;;;;;;5010278;28;19979;-67
2022/05/21 11:10:23;;;;;;;;;;;25.90;97.60;;;;;;5010280;28;19925;-69
2022/05/21 11:12:56;;;;;;;;;;;25.60;98.10;;;;;;5012721;28;19936;-67
2022/05/21 11:15:43;;;;;;;;;;;25.20;98.60;;;;;;5006386;28;19944;-67
2022/05/21 11:18:29;;;;;;;;;;;25.20;98.10;;;;;;4991889;28;19962;-66
2022/05/21 11:21:06;;;;;;;;;;;24.70;96.80;;;;;;5003210;28;19947;-65
2022/05/21 11:23:38;;;;;;;;;;;24.10;97.20;;;;;;5009300;28;19925;-66
2022/05/21 11:26:10;;;;;;;;;;;24.10;97.40;;;;;;5011946;28;19926;-65
2022/05/21 11:28:40;;;;;;;;;;;24.20;96.90;;;;;;5014527;28;19940;-67
2022/05/21 11:37:19;;;;;;;;;;;24.40;97.90;;;;;;5010551;28;19971;-65
2022/05/21 11:39:39;;;;;;;;;;;24.70;96.80;;;;;;5003392;28;19925;-73
2022/05/21 11:42:11;;;;;;;;;;;24.20;97.10;;;;;;4993463;28;19929;-68
2022/05/21 11:45:01;;;;;;;;;;;24.10;96.40;;;;;;5001635;28;20020;-65
2022/05/21 11:47:35;;;;;;;;;;;24.10;97.10;;;;;;5006143;28;19932;-65
2022/05/21 11:50:07;;;;;;;;;;;24.10;97.10;;;;;;5008555;28;20021;-67
2022/05/21 11:52:34;;;;;;;;;;;24.40;97.40;;;;;;5008479;28;19968;-71
2022/05/21 11:55:01;;;;;;;;;;;24.60;96.40;;;;;;5007150;28;19936;-66
2022/05/21 11:57:30;;;;;;;;;;;24.90;98.20;;;;;;5023767;28;19941;-69
2022/05/21 11:59:58;;;;;;;;;;;24.80;96.60;;;;;;5014440;28;19926;-66
2022/05/21 12:02:36;;;;;;;;;;;24.50;96.00;;;;;;5018912;28;19926;-64
2022/05/21 12:05:10;;;;;;;;;;;24.10;96.30;;;;;;5020730;28;20469;-66
2022/05/21 12:07:44;;;;;;;;;;;24.20;97.10;;;;;;5007524;28;19933;-65
2022/05/21 12:10:12;;;;;;;;;;;24.50;97.20;;;;;;5011200;28;19940;-65
2022/05/21 12:12:59;;;;;;;;;;;24.80;96.70;;;;;;5016809;28;19926;-66
2022/05/21 12:15:47;;;;;;;;;;;24.80;97.90;;;;;;5006714;28;20380;-65
2022/05/21 12:18:32;;;;;;;;;;;25.00;97.20;;;;;;5013474;28;19931;-66
2022/05/21 12:20:59;;;;;;;;;;;25.30;97.00;;;;;;5009929;28;19940;-65
2022/05/21 12:23:32;;;;;;;;;;;25.60;96.80;;;;;;5011507;28;19933;-65
2022/05/21 12:26:00;;;;;;;;;;;25.40;96.30;;;;;;5012400;28;19936;-65
2022/05/21 12:28:36;;;;;;;;;;;25.50;95.20;;;;;;5042697;28;20119;-67
2022/05/21 12:31:12;;;;;;;;;;;25.30;95.60;;;;;;5010264;28;20335;-67
2022/05/21 12:33:51;;;;;;;;;;;25.50;95.60;;;;;;5008905;28;19975;-64
2022/05/21 12:36:40;;;;;;;;;;;25.50;95.30;;;;;;5012299;28;19925;-67
2022/05/21 12:39:13;;;;;;;;;;;25.60;94.40;;;;;;5006415;28;19929;-66
2022/05/21 12:41:46;;;;;;;;;;;25.70;95.00;;;;;;5010596;28;20443;-66
2022/05/21 12:44:33;;;;;;;;;;;25.80;95.40;;;;;;5006451;28;19926;-66
2022/05/21 12:47:00;;;;;;;;;;;25.60;94.80;;;;;;5010332;28;20029;-65
2022/05/21 12:49:27;;;;;;;;;;;25.10;94.40;;;;;;5022005;28;19972;-64
2022/05/21 12:51:54;;;;;;;;;;;24.80;94.40;;;;;;5018802;28;20336;-63
2022/05/21 12:54:24;;;;;;;;;;;25.00;95.40;;;;;;5013815;28;19925;-64
2022/05/21 12:56:51;;;;;;;;;;;25.30;94.60;;;;;;5019659;28;19983;-64
2022/05/21 12:59:18;;;;;;;;;;;25.30;94.90;;;;;;5010753;28;19925;-67
2022/05/21 13:02:01;;;;;;;;;;;25.10;95.20;;;;;;5011506;28;20008;-67
2022/05/21 13:04:31;;;;;;;;;;;25.10;94.60;;;;;;5010988;28;19929;-66
2022/05/21 13:06:57;;;;;;;;;;;25.00;94.50;;;;;;5013463;28;19926;-65
2022/05/21 13:09:25;;;;;;;;;;;25.30;95.40;;;;;;5010125;28;19940;-68
2022/05/21 13:11:51;;;;;;;;;;;25.50;94.40;;;;;;5021475;28;20330;-68
2022/05/21 13:14:23;;;;;;;;;;;25.80;94.50;;;;;;5008999;28;20011;-66
2022/05/21 13:16:51;;;;;;;;;;;25.80;94.60;;;;;;4985469;28;19934;-66
2022/05/21 13:19:38;;;;;;;;;;;25.50;93.90;;;;;;5005424;28;20402;-67
2022/05/21 13:22:14;;;;;;;;;;;25.30;94.70;;;;;;5013635;28;19976;-66
2022/05/21 13:24:42;;;;;;;;;;;25.20;94.90;;;;;;5003881;28;19931;-67
2022/05/21 13:27:10;;;;;;;;;;;25.20;94.90;;;;;;5012675;28;20016;-68
2022/05/21 13:29:38;;;;;;;;;;;25.10;95.10;;;;;;5015399;28;19965;-64
2022/05/21 13:32:36;;;;;;;;;;;25.00;94.50;;;;;;5012206;28;19925;-67
2022/05/21 13:35:17;;;;;;;;;;;25.00;94.10;;;;;;4970038;28;19932;-66
2022/05/21 13:37:46;;;;;;;;;;;25.50;94.70;;;;;;4966806;28;20279;-63
2022/05/21 13:40:17;;;;;;;;;;;26.20;94.80;;;;;;4976512;28;19926;-63
2022/05/21 13:42:45;;;;;;;;;;;26.50;94.70;;;;;;4971336;28;19926;-64
2022/05/21 13:45:20;;;;;;;;;;;26.70;93.90;;;;;;4973927;28;19930;-65
2022/05/21 13:47:49;;;;;;;;;;;26.90;94.40;;;;;;4971421;28;20021;-64
2022/05/21 13:50:22;;;;;;;;;;;26.70;93.20;;;;;;4964881;28;20033;-65
2022/05/21 13:52:48;;;;;;;;;;;26.60;93.10;;;;;;4951317;28;20005;-67
2022/05/21 13:55:15;;;;;;;;;;;26.70;93.10;;;;;;4973949;28;19942;-66
2022/05/21 13:57:42;;;;;;;;;;;26.90;92.90;;;;;;4978413;28;19925;-67
2022/05/21 14:00:20;;;;;;;;;;;27.00;93.70;;;;;;4973647;28;19926;-65
2022/05/21 14:02:49;;;;;;;;;;;27.40;93.20;;;;;;4970848;28;20368;-66
2022/05/21 14:05:25;;;;;;;;;;;27.80;93.20;;;;;;4957244;28;20025;-67
2022/05/21 14:07:51;;;;;;;;;;;28.20;93.20;;;;;;4960144;28;20021;-66
2022/05/21 14:10:29;;;;;;;;;;;28.40;92.70;;;;;;4972441;28;19930;-66
2022/05/21 14:12:56;;;;;;;;;;;28.90;92.80;;;;;;5006730;28;20012;-65
2022/05/21 14:15:32;;;;;;;;;;;29.60;91.60;;;;;;5002339;28;19932;-66
2022/05/21 14:18:01;;;;;;;;;;;30.00;92.50;;;;;;5007920;28;19926;-66
2022/05/21 14:20:35;;;;;;;;;;;29.90;91.40;;;;;;5008652;28;19937;-65
2022/05/21 14:23:41;;;;;;;;;;;29.20;91.80;;;;;;4992117;28;19980;-68
2022/05/21 14:26:25;;;;;;;;;;;28.60;91.60;;;;;;4963304;28;20649;-62
2022/05/21 14:28:52;;;;;;;;;;;29.40;91.90;;;;;;4963899;28;19969;-65
2022/05/21 14:31:21;;;;;;;;;;;29.90;91.60;;;;;;4967513;28;19948;-70
2022/05/21 14:33:52;;;;;;;;;;;30.50;91.10;;;;;;4954238;28;19934;-65
2022/05/21 14:36:21;;;;;;;;;;;30.60;90.80;;;;;;4961210;28;19926;-70
2022/05/21 14:38:49;;;;;;;;;;;29.90;90.80;;;;;;4965997;28;20425;-68
2022/05/21 14:41:33;;;;;;;;;;;29.90;90.30;;;;;;4968921;28;19929;-69
2022/05/21 14:44:01;;;;;;;;;;;29.00;91.00;;;;;;4965615;28;19930;-68
2022/05/21 14:49:14;;;;;;;;;;;28.10;91.20;;;;;;4965852;28;19927;-72
2022/05/21 14:54:38;;;;;;;;;;;29.20;91.40;;;;;;4968376;28;19937;-72
2022/05/21 14:57:08;;;;;;;;;;;29.70;91.10;;;;;;4989651;28;19933;-69
2022/05/21 14:59:35;;;;;;;;;;;30.30;90.10;;;;;;5019193;28;20423;-69
2022/05/21 15:02:01;;;;;;;;;;;29.90;89.10;;;;;;4996849;28;19926;-73
2022/05/21 15:04:28;;;;;;;;;;;29.70;90.70;;;;;;4994279;28;20016;-69
2022/05/21 15:06:55;;;;;;;;;;;30.00;90.40;;;;;;5028370;28;19926;-66
2022/05/21 15:09:21;;;;;;;;;;;30.00;90.10;;;;;;4987898;28;20008;-68
2022/05/21 15:11:48;;;;;;;;;;;30.20;90.10;;;;;;5000475;28;19936;-70
2022/05/21 15:14:15;;;;;;;;;;;30.90;89.40;;;;;;5000915;28;19936;-71
2022/05/21 15:16:43;;;;;;;;;;;31.50;90.60;;;;;;5011609;28;20043;-71
2022/05/21 15:19:10;;;;;;;;;;;31.70;88.50;;;;;;5007801;28;20384;-71
2022/05/21 15:21:40;;;;;;;;;;;32.00;87.70;;;;;;5007829;28;19926;-71
2022/05/21 15:24:07;;;;;;;;;;;31.70;87.80;;;;;;5009653;28;19984;-70
2022/05/21 15:26:33;;;;;;;;;;;31.60;87.00;;;;;;5006088;28;19925;-70